Weather at Kaunas Gamykla Airfield [CLOSED]

Public forecast

Using degrees Celsius for public forecast. Weather courtesy of forecast.io.

Closest aviation weather report (METAR) to Kaunas Gamykla Airfield

Closest report is Kaunas International Airport, 7.9 nm (14.7 km) NE.

2024/06/15 03:50 (retrieved 16 minutes ago)

EYKA 150350Z VRB01KT CAVOK 12/10 Q1016

Closest aviation forecast (TAF) to Kaunas Gamykla Airfield

Forecast is more than 12 hours old.

Closest forecast is Ă„mari Air Base, 263.2 nm (487.4 km) N.

2024/06/14 12:18 (retrieved 16 hours ago)

TAF EEEI 141215Z 1412/1512 CNL